Report METAR

 

LIMJ -
Dati ricevuti: 05/02/2023 18:50
Few Clouds
Few Clouds
 Vento da NNE
Vento: NNE 13 km/h
Temperatura: 8°C
Temperatura Vento: 6°C
P.to Rugiada: 2°C
Umidità: 66%
Barometro: 1028 hPa
Nuvole: Few Clouds
Visibility: 10 km
Cloud details: Few Clouds 1219 m
2023/02/05 17:50 LIMJ 051750Z 02007KT 350V070 9999 FEW040 08/02 Q1028